DIRECCIÓN GENERAL DE AERONÁUTICA CIVIL
DIRECCIÓN METEOROLÓGICA DE CHILE
INFORMACIÓN METAR Y TAF

FIR PUERTO MONTT

Estación: SCQP
METAR SCQP 010300Z 25003KT 210V270 CAVOK 06/05 Q1023=

TAF SCQP 312230Z 0100/0200 22009KT 9999 SCT030 TN02/0110Z TX14/0119Z BECMG 0102/0104 VRB02KT BECMG 0106/0108 3000 BR PROB40 TEMPO 0107/ 0110 0400 FG VV/// BECMG 0114/0116 9999 BECMG 0118/0120 15006KT BKN040 TEMPO 0120/0200 8000 -SHRA=

Estación: SCVD
METAR SCVD 010300Z AUTO 24004KT CAVOK 06/05 Q1024=

TAF SCVD 311645Z 3118/0106 23008KT 9999 BKN040 TX14/3118Z TN05/0106Z BECMG 0104/0106 15005KT SCT025=

Estación: SCJO
METAR SCJO 312200Z 17006KT 7000 -SHRA BKN027 09/08 Q1024=

TAF SCJO 311645Z 3118/0106 22005KT 9999 BKN035 TX12/3118Z TN04/0106Z TEMPO 3118/3121 5000 -SHRA BKN020 BECMG 0103/0105 15005KT SCT025=

Estación: SCTE
METAR SCTE 010300Z 14002KT 9999 SCT030 05/04 Q1026 NOSIG=

TAF SCTE 312230Z 0100/0200 13004KT 9999 BKN040 TN03/0109Z TX11/0119Z TEMPO 0104/0108 SCT070 BECMG 0114/0116 10012KT BKN060 TEMPO 0118/0121 8000 -SHRA BKN030=

Estación: SCPQ
METAR SCPQ 010300Z AUTO 19009KT //// NCD 05/02 Q1026=

TAF SCPQ 311645Z 3118/0106 17008KT 9999 BKN040 TX10/3118Z TN05/0106Z TEMPO 3118/3121 5000 -SHRA SCT015 BKN025 BECMG 0100/0102 15010KT SCT030=

Estación: SCON
METAR SCON 010300Z AUTO 22002KT CAVOK 04/02 Q1027=

TAF SCON 311645Z 3118/0106 16005KT CAVOK TX10/3118Z TN05/0106Z TEMPO 3118/3121 9999 BKN030 BECMG 0100/0102 14010KT=

Estación: SCTN
NIL=

NIL=

Estación: SCFT
METAR SCFT 010300Z AUTO VRB01KT CAVOK 02/M01 Q1027=

NIL=

Estación: SCAP
METAR SCAP 010300Z AUTO VRB02KT //// // NSC 02/M01 Q1034=

NIL=

Estación: SCMK
METAR SCMK 312100Z 20009KT 9999 FEW023 10/00 Q1024=

TAF COR SCMK 311655Z 3118/0106 16007KT 9999 SCT030 TX10/3118Z TN05/ 0106Z BECMG 3121/3123 CAVOK BECMG 0102/0104 12012KT=

Estación: SCAS
METAR SCAS 302000Z 26012G24KT 9999 BKN040 08/M02 Q1011=

NIL=

Estación: SCCY
METAR SCCY 010000Z 28003KT 9999 FEW040 SCT080 07/M03 Q1027=

TAF COR SCCY 311658Z 3118/0106 24005KT 9999 BKN045 TX08/3118Z TN02/ 0106Z BECMG 0103/0105 VRB02KT SCT060=

Estación: SCBA
METAR SCBA 010300Z AUTO VRB05KT CAVOK M01/M05 Q1030=

TAF SCBA 312230Z 0100/0200 VRB02KT 9999 BKN080 TNM04/0110Z TX07/3118Z BECMG 0106/0108 CAVOK BECMG 0112/0114 10005KT=

Estación: SCCC
METAR SCCC 310600Z AUTO 15003KT 130V190 CAVOK M01/M07 Q1016=

NIL=

Estación: SCHR
METAR SCHR 310600Z AUTO 30008KT CAVOK 01/M02 Q1015=

TAF SCHR 301050Z 3012/3100 27005KT 9999 SCT040 TN00/3012Z TX06/3019Z TEMPO 3013/3017 24015KT 7000 -SHRASN BKN025 BECMG 3018/3020 23010KT=


Volver